Aérodrome :
LOGIN :

S'inscrire | Disclaimer

   EN    FR    IT 

 










Légende :    VFR   VFR Marginal   IFR   IFR Intensif   IFR Très Intensif
Visi : 
Plafond : 
>= 8 km
>= 3000ft
5 à 8 km
1000 à 3000 ft
1500m à 5 km
500 à 1000 ft
800 à 1500m
200 à 500 ft
< 800m
< 200 ft
Symboles :   Orages  Brouillard  Fortes neiges  Fortes précipitations  Vent > 20 kt
SIGMETs :   Divers  Orages  Givrage  Turbulence  Onde Orograph.  Cendres Volcan.







- Altitude de l'aérodrome : 776 ft
- Code IATA : RMS


ETAR - Ramstein Air Base

DERNIER METAR :
  • 241534Z 11003KT 9999 BKN022 17/17 A3003 RMK AO2A LTG DSNT SE AND W RAE17 TSE11TSB19E34 SLP171 $

METARs EXPIRÉS :
  • 241519Z 14004KT 9999 TS SCT016 BKN022 17/17 A3003 RMK AO2A LTG DSNT W RAE17 TSB17 SLP171 $
  • 241511Z 00000KT 9999 -RA BKN029 BKN080 17/17 A3003 RMK AO2A LTG DSNT SE AND W TSE11 CIG 011 RWY08 SLP171 $
  • 241456Z 00000KT 9999 -TSRA OVC037 17/17 A3003 RMK AO2A LTG DSNT N-NE AND SE AND W RAB06 TSB1314 SLP171 P0005 60005 T01690169 55006 $
  • 241314Z 00000KT 9999 TS FEW029 SCT035 BKN049 21/16 A3002 RMK A02A TSB14 SLP164 $
  • 241256Z 00000KT 9999 VCTS SCT028 BKN033 21/16 A3003 RMK AO2A SLP168 T02080164 $

TAF AMD TAF ETAR
Valide du 24 à 14h jusqu'au 25 à 16h UTC


241431Z 2414/2516 10009KT 9999 BKN025 QNH2999INS
TEMPO 2414/2418 10012G20KT 8000 -TSRA BKN020CB
BECMG 2420/2421 VRB06KT 8000 BR BKN030 QNH3001INS
BECMG 2501/2502 VRB06KT 3200 BR BKN030 QNH3003INS
BECMG 2504/2505 VRB06KT 6000 BR BKN020 QNH3005INS
BECMG 2506/2507 10009KT 9999 NSW SCT040 QNH3007INS TX21/2414Z TN09/2505Z
Pas de NOTAMs connus pour ce terrain.



MET'MAP, la Météo Aéronautique d'un coup d'oeil ! - Copyright ORBIFLY Décembre 2007 - Disclaimer

ORBIFLY MET'MAP TEAM :

Programmation & Développement : Alexandra Zaïnal
Conception & Développement : Baudouin d'Aumeries
Co-Programmation & Développement : Marc-Olivier Méhu
Soutien technique & logistique : Manuel Goepfert

Contact : metmap@orbifly.com




SOURCES & CREDITS :

   NOAA